Terminal Aerodrome Forecast
Issued by NWS

Home | Current Version | Previous Version | Text Only | Print | Product List | Glossary On
Versions: 1 2 3 4 5 6 7 8 9 10 11 12 13 14 15 16 17 18 19 20
000
FTUS43 KILX 261426 AAB
TAFCMI
TAF AMD
KCMI 261426Z 2614/2712 20010KT 6SM -TSRA BR SCT020CB OVC090
      TEMPO 2614/2616 30015G25KT 2SM +TSRA BKN015CB
     FM261700 20011KT P6SM BKN050
     FM262100 20011KT P6SM VCTS BKN100CB
     FM270300 18007KT P6SM VCSH BKN100=

USA.gov is the U.S. government's official web portal to all federal, state and local government web resources and services.